createdAt,value
2024-01-15T00:00:35.214Z,48.73
2024-01-15T00:03:02.229Z,48.87
2024-01-15T00:05:29.118Z,48.69
2024-01-15T00:07:56.019Z,48.59
2024-01-15T00:10:24.079Z,48.61
2024-01-15T00:12:51.000Z,48.46
2024-01-15T00:15:18.007Z,48.56
2024-01-15T00:17:45.580Z,48.65
2024-01-15T00:20:12.884Z,48.67
2024-01-15T00:22:40.032Z,48.23
2024-01-15T00:25:07.511Z,48.39
2024-01-15T00:27:34.601Z,48.26
2024-01-15T00:30:02.198Z,48.22
2024-01-15T00:32:29.483Z,48.49
2024-01-15T00:34:56.614Z,48.51
2024-01-15T00:37:23.684Z,48.77
2024-01-15T00:39:50.858Z,48.47
2024-01-15T00:42:18.137Z,48.51
2024-01-15T00:44:45.097Z,48.46
2024-01-15T00:47:12.156Z,48.49
2024-01-15T00:49:39.172Z,48.60
2024-01-15T00:52:06.672Z,48.70
2024-01-15T00:54:33.626Z,48.69
2024-01-15T00:57:00.406Z,48.41
2024-01-15T00:59:27.386Z,48.25
2024-01-15T01:01:54.234Z,48.30
2024-01-15T01:04:21.298Z,47.99
2024-01-15T01:06:48.239Z,48.12
2024-01-15T01:09:15.396Z,48.18
2024-01-15T01:11:43.242Z,48.00
2024-01-15T01:14:10.373Z,47.66
2024-01-15T01:16:39.443Z,47.82
2024-01-15T01:19:07.820Z,47.74
2024-01-15T01:21:34.923Z,47.85
2024-01-15T01:24:02.312Z,47.52
2024-01-15T01:26:29.395Z,47.67
2024-01-15T01:28:56.874Z,47.78
2024-01-15T01:31:26.689Z,47.88
2024-01-15T01:33:53.915Z,48.01
2024-01-15T01:36:21.202Z,48.09
2024-01-15T01:38:48.214Z,47.92
2024-01-15T01:41:16.087Z,47.81
2024-01-15T01:43:44.060Z,47.90
2024-01-15T01:46:11.096Z,47.82
2024-01-15T01:48:39.211Z,47.67
2024-01-15T01:51:06.498Z,48.07
2024-01-15T01:53:34.812Z,47.93
2024-01-15T01:56:01.754Z,47.66
2024-01-15T01:58:29.098Z,47.58
2024-01-15T02:00:56.207Z,47.75
2024-01-15T02:03:23.476Z,47.57
2024-01-15T02:05:51.013Z,47.67
2024-01-15T02:08:18.203Z,47.78
2024-01-15T02:10:45.215Z,47.49
2024-01-15T02:13:12.430Z,47.56
2024-01-15T02:15:39.329Z,47.53
2024-01-15T02:18:08.564Z,47.26
2024-01-15T02:20:35.702Z,47.22
2024-01-15T02:23:13.177Z,46.92
2024-01-15T02:25:47.160Z,47.01
2024-01-15T02:28:18.382Z,46.81
2024-01-15T02:30:45.845Z,46.97
2024-01-15T02:33:13.739Z,47.20
2024-01-15T02:35:41.327Z,47.62
2024-01-15T02:38:08.690Z,47.61
2024-01-15T02:40:35.833Z,47.61
2024-01-15T02:43:02.899Z,47.75
2024-01-15T02:45:30.022Z,47.85
2024-01-15T02:47:57.166Z,47.64
2024-01-15T02:50:24.320Z,47.62
2024-01-15T02:52:51.398Z,47.54
2024-01-15T02:55:18.407Z,47.69
2024-01-15T02:57:45.497Z,47.57
2024-01-15T03:00:13.348Z,47.98
2024-01-15T03:02:42.971Z,47.84
2024-01-15T03:05:11.576Z,47.70
2024-01-15T03:07:38.791Z,47.75
2024-01-15T03:10:06.948Z,47.74
2024-01-15T03:12:34.057Z,47.59
2024-01-15T03:15:01.182Z,47.83
2024-01-15T03:17:28.539Z,47.82
2024-01-15T03:19:55.889Z,47.66
2024-01-15T03:22:23.136Z,47.57
2024-01-15T03:24:50.201Z,47.87
2024-01-15T03:27:19.663Z,47.88
2024-01-15T03:29:47.606Z,47.75
2024-01-15T03:32:14.572Z,47.62
2024-01-15T03:34:41.805Z,47.73
2024-01-15T03:37:08.867Z,47.73
2024-01-15T03:39:36.225Z,47.91
2024-01-15T03:42:03.569Z,48.07
2024-01-15T03:44:30.634Z,47.97
2024-01-15T03:46:58.790Z,48.04
2024-01-15T03:49:25.581Z,48.10
2024-01-15T03:51:52.949Z,48.23
2024-01-15T03:54:21.084Z,47.81
2024-01-15T03:56:48.092Z,47.82
2024-01-15T03:59:15.343Z,48.11
2024-01-15T04:01:42.365Z,47.88
2024-01-15T04:04:09.561Z,47.93
2024-01-15T04:06:36.845Z,47.61
2024-01-15T04:09:03.963Z,47.62
2024-01-15T04:11:31.127Z,47.41
2024-01-15T04:13:58.144Z,47.53
2024-01-15T04:16:25.956Z,47.79
2024-01-15T04:18:53.118Z,47.83
2024-01-15T04:21:20.323Z,48.02
2024-01-15T04:23:47.355Z,48.02
2024-01-15T04:26:14.392Z,47.88
2024-01-15T04:28:41.562Z,48.06
2024-01-15T04:31:08.843Z,48.04
2024-01-15T04:33:36.425Z,47.80
2024-01-15T04:36:05.922Z,47.63
2024-01-15T04:38:33.837Z,47.61
2024-01-15T04:41:00.887Z,47.67
2024-01-15T04:43:28.105Z,47.74
2024-01-15T04:45:55.187Z,47.69
2024-01-15T04:48:23.743Z,47.92
2024-01-15T04:50:51.418Z,47.87
2024-01-15T04:53:18.504Z,47.61
2024-01-15T04:55:45.770Z,47.44
2024-01-15T04:58:12.664Z,47.27
2024-01-15T05:00:40.114Z,47.32
2024-01-15T05:03:07.151Z,47.63
2024-01-15T05:05:34.393Z,47.58
2024-01-15T05:08:01.462Z,47.72
2024-01-15T05:10:28.616Z,47.75
2024-01-15T05:12:55.619Z,47.81
2024-01-15T05:15:22.863Z,47.79
2024-01-15T05:17:50.064Z,47.74
2024-01-15T05:20:17.548Z,47.89
2024-01-15T05:22:44.563Z,47.79
2024-01-15T05:25:11.512Z,48.00
2024-01-15T05:27:38.686Z,47.84
2024-01-15T05:30:06.619Z,47.91
2024-01-15T05:32:34.098Z,48.00
2024-01-15T05:35:01.201Z,48.11
2024-01-15T05:37:28.303Z,48.17
2024-01-15T05:39:55.454Z,48.09
2024-01-15T05:42:22.569Z,47.91
2024-01-15T05:44:49.718Z,47.87
2024-01-15T05:47:16.773Z,47.81
2024-01-15T05:49:43.791Z,47.51
2024-01-15T05:52:10.875Z,47.53
2024-01-15T05:54:38.759Z,47.48
2024-01-15T05:57:06.397Z,47.33
2024-01-15T05:59:35.034Z,47.03
2024-01-15T06:02:02.121Z,46.98
2024-01-15T06:04:29.258Z,46.98
2024-01-15T06:06:56.558Z,46.99
2024-01-15T06:09:24.522Z,47.12
2024-01-15T06:11:51.532Z,47.36
2024-01-15T06:14:18.480Z,47.16
2024-01-15T06:16:45.429Z,47.19
2024-01-15T06:19:12.545Z,47.44
2024-01-15T06:21:39.955Z,47.75
2024-01-15T06:24:07.358Z,47.68
2024-01-15T06:26:34.536Z,47.86
2024-01-15T06:29:01.502Z,47.71
2024-01-15T06:31:28.679Z,47.66
2024-01-15T06:33:57.563Z,47.42
2024-01-15T06:36:24.514Z,47.61
2024-01-15T06:38:51.511Z,47.38
2024-01-15T06:41:18.574Z,47.36
2024-01-15T06:43:45.527Z,47.61
2024-01-15T06:46:13.746Z,47.30
2024-01-15T06:48:40.876Z,47.33
2024-01-15T06:51:08.000Z,46.90
2024-01-15T06:53:34.929Z,46.89
2024-01-15T06:56:02.786Z,46.96
2024-01-15T06:58:31.881Z,47.03
2024-01-15T07:00:59.402Z,47.11
2024-01-15T07:03:26.562Z,46.98
2024-01-15T07:05:56.338Z,46.90
2024-01-15T07:08:23.785Z,46.65
2024-01-15T07:10:51.008Z,46.42
2024-01-15T07:13:18.357Z,46.40
2024-01-15T07:15:45.385Z,46.43
2024-01-15T07:18:12.673Z,46.70
2024-01-15T07:20:40.028Z,46.79
2024-01-15T07:23:07.684Z,47.05
2024-01-15T07:25:34.508Z,47.30
2024-01-15T07:28:01.562Z,47.28
2024-01-15T07:30:28.759Z,47.33
2024-01-15T07:32:55.875Z,47.28
2024-01-15T07:35:23.114Z,47.25
2024-01-15T07:37:50.076Z,47.30
2024-01-15T07:40:17.308Z,47.51
2024-01-15T07:42:44.731Z,47.36
2024-01-15T07:45:12.295Z,47.27
2024-01-15T07:47:39.307Z,47.03
2024-01-15T07:50:07.067Z,46.87
2024-01-15T07:52:34.590Z,46.54
2024-01-15T07:55:01.823Z,46.07
2024-01-15T07:57:29.378Z,45.82
2024-01-15T07:59:56.445Z,45.60
2024-01-15T08:02:23.283Z,45.55
2024-01-15T08:04:50.353Z,45.64
2024-01-15T08:07:18.604Z,45.51
2024-01-15T08:09:48.362Z,45.40
2024-01-15T08:12:16.408Z,45.32
2024-01-15T08:14:43.456Z,45.12
2024-01-15T08:17:10.456Z,45.04
2024-01-15T08:19:37.606Z,44.57
2024-01-15T08:22:05.099Z,44.17
2024-01-15T08:24:32.836Z,43.88
2024-01-15T08:27:00.001Z,43.65
2024-01-15T08:29:26.942Z,43.73
2024-01-15T08:31:53.971Z,43.49
2024-01-15T08:34:21.343Z,43.31
2024-01-15T08:36:48.464Z,43.05
2024-01-15T08:39:15.769Z,43.19
2024-01-15T08:41:42.688Z,43.33
2024-01-15T08:44:09.701Z,43.40
2024-01-15T08:46:38.425Z,43.49
2024-01-15T08:49:05.386Z,43.55
2024-01-15T08:51:32.465Z,43.34
2024-01-15T08:53:59.561Z,43.52
2024-01-15T08:56:28.046Z,43.48
2024-01-15T08:58:55.051Z,43.46
2024-01-15T09:01:24.206Z,43.71
2024-01-15T09:03:51.259Z,43.77
2024-01-15T09:06:18.521Z,43.70
2024-01-15T09:08:45.373Z,43.90
2024-01-15T09:11:13.156Z,44.21
2024-01-15T09:13:43.422Z,44.34
2024-01-15T09:16:10.425Z,44.54
2024-01-15T09:18:37.607Z,44.71
2024-01-15T09:21:05.882Z,44.88
2024-01-15T09:23:33.340Z,44.95
2024-01-15T09:26:00.481Z,44.98
2024-01-15T09:28:27.530Z,45.19
2024-01-15T09:30:54.647Z,45.33
2024-01-15T09:33:21.963Z,45.67
2024-01-15T09:35:49.693Z,45.57
2024-01-15T09:38:16.747Z,45.84
2024-01-15T09:40:44.123Z,46.10
2024-01-15T09:43:11.398Z,46.29
2024-01-15T09:45:39.173Z,46.43
2024-01-15T09:48:08.030Z,46.59
2024-01-15T09:50:35.185Z,46.54
2024-01-15T09:53:02.308Z,46.81
2024-01-15T09:55:29.908Z,46.95
2024-01-15T09:57:57.185Z,47.13
2024-01-15T10:00:24.405Z,47.65
2024-01-15T10:02:51.411Z,47.96
2024-01-15T10:05:18.458Z,48.00
2024-01-15T10:07:45.477Z,47.89
2024-01-15T10:10:12.676Z,47.53
2024-01-15T10:12:40.248Z,47.54
2024-01-15T10:15:11.486Z,47.49
2024-01-15T10:17:39.685Z,47.46
2024-01-15T10:20:11.379Z,47.25
2024-01-15T10:22:42.843Z,47.04
2024-01-15T10:25:15.835Z,46.71
2024-01-15T10:27:43.221Z,45.98
2024-01-15T10:30:11.474Z,45.78
2024-01-15T10:32:38.836Z,45.74
2024-01-15T10:35:07.819Z,45.74
2024-01-15T10:37:35.277Z,45.46
2024-01-15T10:40:05.799Z,45.27
2024-01-15T10:42:33.082Z,45.20
2024-01-15T10:45:00.274Z,45.20
2024-01-15T10:47:27.482Z,45.25
2024-01-15T10:49:55.273Z,45.37
2024-01-15T10:52:22.868Z,45.53
2024-01-15T10:54:49.782Z,45.66
2024-01-15T10:57:16.677Z,45.67
2024-01-15T10:59:43.797Z,45.48
2024-01-15T11:02:13.516Z,45.22
2024-01-15T11:04:40.574Z,45.02
2024-01-15T11:07:07.849Z,45.17
2024-01-15T11:09:35.563Z,45.30
2024-01-15T11:12:11.288Z,45.55
2024-01-15T11:14:46.148Z,45.79
2024-01-15T11:17:14.734Z,45.76
2024-01-15T11:19:42.120Z,45.80
2024-01-15T11:22:09.752Z,46.04
2024-01-15T11:24:38.387Z,46.22
2024-01-15T11:27:06.815Z,46.25
2024-01-15T11:29:35.728Z,46.26
2024-01-15T11:32:09.634Z,46.18
2024-01-15T11:35:00.566Z,46.10
2024-01-15T11:37:52.069Z,46.16
2024-01-15T11:40:20.528Z,46.45
2024-01-15T11:42:48.109Z,46.64
2024-01-15T11:45:20.332Z,46.56
2024-01-15T11:48:01.180Z,46.14
2024-01-15T11:50:29.663Z,45.65
2024-01-15T11:53:07.087Z,45.30
2024-01-15T11:55:37.140Z,45.01
2024-01-15T11:58:09.816Z,44.77
2024-01-15T12:00:41.431Z,44.97
2024-01-15T12:03:08.896Z,45.16
2024-01-15T12:05:40.566Z,45.43
2024-01-15T12:08:11.555Z,45.87
2024-01-15T12:10:41.144Z,46.21
2024-01-15T12:13:14.540Z,46.32
2024-01-15T12:15:42.904Z,46.17
2024-01-15T12:18:11.265Z,45.99
2024-01-15T12:20:38.624Z,45.77
2024-01-15T12:23:08.894Z,45.58
2024-01-15T12:25:36.582Z,45.47
2024-01-15T12:28:04.342Z,45.43
2024-01-15T12:30:34.491Z,45.61
2024-01-15T12:33:05.651Z,45.68
2024-01-15T12:35:34.196Z,45.62
2024-01-15T12:38:04.763Z,45.68
2024-01-15T12:40:34.118Z,45.65
2024-01-15T12:43:01.617Z,45.68
2024-01-15T12:45:28.720Z,45.81
2024-01-15T12:47:56.009Z,46.04
2024-01-15T12:50:26.878Z,46.26
2024-01-15T12:52:53.983Z,46.35
2024-01-15T12:55:21.212Z,46.46
2024-01-15T12:57:48.221Z,46.71
2024-01-15T13:00:16.555Z,46.77
2024-01-15T13:02:44.588Z,46.93
2024-01-15T13:05:13.436Z,47.04
2024-01-15T13:07:41.640Z,47.15
2024-01-15T13:10:12.524Z,47.42
2024-01-15T13:12:41.433Z,47.65
2024-01-15T13:15:12.599Z,47.87
2024-01-15T13:17:40.642Z,48.25
2024-01-15T13:20:09.510Z,48.42
2024-01-15T13:22:39.826Z,48.60
2024-01-15T13:25:09.310Z,48.56
2024-01-15T13:27:37.499Z,48.45
2024-01-15T13:30:07.225Z,48.53
2024-01-15T13:32:36.289Z,48.49
2024-01-15T13:35:06.340Z,48.55
2024-01-15T13:37:34.926Z,48.45
2024-01-15T13:40:02.083Z,48.28
2024-01-15T13:42:29.434Z,48.14
2024-01-15T13:44:56.470Z,47.98
2024-01-15T13:47:23.550Z,47.77
2024-01-15T13:49:50.832Z,47.61
2024-01-15T13:52:18.616Z,47.25
2024-01-15T13:54:49.923Z,46.89
2024-01-15T13:57:19.229Z,46.31
2024-01-15T13:59:46.773Z,45.93
2024-01-15T14:02:17.655Z,45.71
2024-01-15T14:04:48.515Z,45.96
2024-01-15T14:07:16.260Z,46.08
2024-01-15T14:09:43.364Z,46.33
2024-01-15T14:12:10.556Z,46.51
2024-01-15T14:14:37.619Z,46.76
2024-01-15T14:17:04.719Z,46.59
2024-01-15T14:19:31.872Z,46.73
2024-01-15T14:21:59.147Z,46.97
2024-01-15T14:24:26.353Z,46.93
2024-01-15T14:26:53.683Z,47.10
2024-01-15T14:29:23.186Z,47.33
2024-01-15T14:31:50.382Z,47.93
2024-01-15T14:34:19.032Z,48.51
2024-01-15T14:36:47.662Z,49.16
2024-01-15T14:39:16.788Z,49.63
2024-01-15T14:41:43.827Z,50.12
2024-01-15T14:44:12.923Z,50.21
2024-01-15T14:46:39.970Z,50.16
2024-01-15T14:49:07.225Z,50.29
2024-01-15T14:51:35.144Z,50.30
2024-01-15T14:54:02.336Z,50.46
2024-01-15T14:56:29.902Z,50.56
2024-01-15T14:58:56.944Z,50.84
2024-01-15T15:01:24.373Z,51.10
2024-01-15T15:03:51.855Z,51.23
2024-01-15T15:06:19.274Z,51.35
2024-01-15T15:08:46.465Z,51.13
2024-01-15T15:11:14.241Z,51.21
2024-01-15T15:13:45.519Z,51.48
2024-01-15T15:16:14.176Z,51.66
2024-01-15T15:18:47.183Z,51.96
2024-01-15T15:21:14.696Z,52.30
2024-01-15T15:23:41.689Z,52.48
2024-01-15T15:26:09.815Z,52.85
2024-01-15T15:28:39.523Z,52.96
2024-01-15T15:31:08.977Z,53.18
2024-01-15T15:33:36.090Z,53.36
2024-01-15T15:36:05.536Z,53.44
2024-01-15T15:38:33.132Z,53.60
2024-01-15T15:41:00.998Z,53.77
2024-01-15T15:43:28.456Z,53.92
2024-01-15T15:45:56.515Z,54.05
2024-01-15T15:48:23.848Z,54.16
2024-01-15T15:50:51.973Z,54.28
2024-01-15T15:53:22.891Z,54.48
2024-01-15T15:55:49.940Z,54.65
2024-01-15T15:58:16.983Z,54.75
2024-01-15T16:00:44.248Z,54.88
2024-01-15T16:03:11.317Z,55.11
2024-01-15T16:05:45.559Z,55.19
2024-01-15T16:08:19.479Z,55.27
2024-01-15T16:10:47.005Z,55.24
2024-01-15T16:13:14.759Z,55.47
2024-01-15T16:15:44.387Z,55.54
2024-01-15T16:23:19.342Z,55.52
2024-01-15T16:23:33.954Z,55.58
2024-01-15T16:24:10.399Z,55.56
2024-01-15T16:26:33.905Z,55.54
2024-01-15T16:29:03.230Z,55.44
2024-01-15T16:31:32.255Z,55.35
2024-01-15T16:34:04.679Z,55.31
2024-01-15T16:36:33.601Z,55.21
2024-01-15T16:39:01.766Z,55.22
2024-01-15T16:41:29.224Z,55.22
2024-01-15T16:43:56.473Z,55.15
2024-01-15T16:46:23.559Z,55.14
2024-01-15T16:48:50.658Z,55.12
2024-01-15T16:51:17.987Z,54.99
2024-01-15T16:53:45.196Z,54.84
2024-01-15T16:56:12.536Z,54.66
2024-01-15T16:58:40.016Z,54.71
2024-01-15T17:01:08.792Z,54.69
2024-01-15T17:03:36.309Z,54.74
2024-01-15T17:06:03.728Z,54.81
2024-01-15T17:08:31.462Z,54.88
2024-01-15T17:11:00.710Z,54.87
2024-01-15T17:13:29.472Z,55.02
2024-01-15T17:15:56.402Z,55.22
2024-01-15T17:18:23.555Z,55.31
2024-01-15T17:20:50.809Z,55.40
2024-01-15T17:23:18.989Z,55.39
2024-01-15T17:25:46.123Z,55.44
2024-01-15T17:28:13.482Z,55.54
2024-01-15T17:30:40.517Z,55.33
2024-01-15T17:33:07.701Z,55.50
2024-01-15T17:35:35.156Z,55.55
2024-01-15T17:38:02.569Z,55.63
2024-01-15T17:40:30.058Z,55.73
2024-01-15T17:42:57.194Z,55.98
2024-01-15T17:45:25.057Z,56.17
2024-01-15T17:47:52.439Z,56.19
2024-01-15T17:50:19.792Z,56.20
2024-01-15T17:52:47.013Z,56.14
2024-01-15T17:55:14.280Z,56.21
2024-01-15T17:57:42.340Z,56.37
2024-01-15T18:00:10.887Z,56.52
2024-01-15T18:02:39.175Z,56.67
2024-01-15T18:05:06.922Z,56.72
2024-01-15T18:07:34.018Z,56.65
2024-01-15T18:10:01.268Z,56.64
2024-01-15T18:12:28.620Z,56.79
2024-01-15T18:14:55.782Z,57.03
2024-01-15T18:17:24.008Z,57.17
2024-01-15T18:19:51.192Z,57.25
2024-01-15T18:22:19.172Z,57.26
2024-01-15T18:24:46.924Z,57.23
2024-01-15T18:27:14.192Z,57.16
2024-01-15T18:29:41.603Z,57.27
2024-01-15T18:32:08.740Z,57.30
2024-01-15T18:34:36.913Z,57.34
2024-01-15T18:37:04.936Z,57.47
2024-01-15T18:39:34.438Z,57.40
2024-01-15T18:42:01.688Z,57.38
2024-01-15T18:44:29.796Z,57.41
2024-01-15T18:46:58.387Z,57.36
2024-01-15T18:49:25.774Z,57.36
2024-01-15T18:51:54.464Z,57.31
2024-01-15T18:54:22.130Z,57.16
2024-01-15T18:56:49.210Z,57.26
2024-01-15T18:59:16.497Z,57.16
2024-01-15T19:01:44.525Z,57.18
2024-01-15T19:04:12.564Z,57.24
2024-01-15T19:06:41.734Z,57.25
2024-01-15T19:09:10.999Z,57.10
2024-01-15T19:11:38.324Z,57.04
2024-01-15T19:14:06.628Z,56.82
2024-01-15T19:16:33.664Z,56.79
2024-01-15T19:19:00.867Z,56.73
2024-01-15T19:21:28.061Z,56.79
2024-01-15T19:23:55.308Z,56.81
2024-01-15T19:26:22.807Z,56.92
2024-01-15T19:28:49.968Z,57.05
2024-01-15T19:31:19.818Z,57.19
2024-01-15T19:33:46.956Z,57.39
2024-01-15T19:36:24.661Z,57.50
2024-01-15T19:38:52.019Z,57.57
2024-01-15T19:41:19.526Z,57.70
2024-01-15T19:43:46.737Z,57.64
2024-01-15T19:46:13.767Z,57.53
2024-01-15T19:48:41.445Z,57.51
2024-01-15T19:51:08.778Z,57.43
2024-01-15T19:53:37.956Z,57.47
2024-01-15T19:56:05.296Z,57.40
2024-01-15T19:58:36.169Z,57.42
2024-01-15T20:01:03.707Z,57.41
2024-01-15T20:03:30.908Z,57.50
2024-01-15T20:05:58.192Z,57.64
2024-01-15T20:08:25.414Z,57.75
2024-01-15T20:10:53.861Z,57.75
2024-01-15T20:13:21.123Z,57.79
2024-01-15T20:15:48.674Z,57.82
2024-01-15T20:18:16.140Z,57.77
2024-01-15T20:20:43.520Z,57.74
2024-01-15T20:23:10.927Z,57.80
2024-01-15T20:25:38.314Z,57.85
2024-01-15T20:28:07.059Z,57.93
2024-01-15T20:30:34.234Z,57.99
2024-01-15T20:33:01.565Z,58.01
2024-01-15T20:35:29.592Z,58.08
2024-01-15T20:37:58.190Z,58.07
2024-01-15T20:40:25.201Z,58.05
2024-01-15T20:42:53.431Z,58.11
2024-01-15T20:45:20.406Z,58.12
2024-01-15T20:47:47.764Z,58.15
2024-01-15T20:50:15.819Z,58.06
2024-01-15T20:52:42.926Z,57.96
2024-01-15T20:55:11.868Z,58.02
2024-01-15T20:57:39.030Z,58.12
2024-01-15T21:00:08.910Z,58.25
2024-01-15T21:02:37.424Z,58.14
2024-01-15T21:05:05.129Z,58.09
2024-01-15T21:07:32.636Z,58.12
2024-01-15T21:09:59.984Z,58.07
2024-01-15T21:12:27.025Z,57.86
2024-01-15T21:14:56.433Z,57.75
2024-01-15T21:17:24.164Z,57.82
2024-01-15T21:19:56.278Z,57.86
2024-01-15T21:22:23.311Z,57.93
2024-01-15T21:24:50.465Z,57.97
2024-01-15T21:27:17.716Z,58.09
2024-01-15T21:29:44.693Z,58.06
2024-01-15T21:32:11.996Z,58.16
2024-01-15T21:34:39.013Z,58.11
2024-01-15T21:37:06.312Z,58.11
2024-01-15T21:39:33.808Z,58.05
2024-01-15T21:42:01.115Z,58.12
2024-01-15T21:44:28.834Z,58.06
2024-01-15T21:46:56.135Z,58.12
2024-01-15T21:49:23.254Z,58.03
2024-01-15T21:51:50.546Z,58.01
2024-01-15T21:54:17.597Z,58.03
2024-01-15T21:56:44.694Z,57.85
2024-01-15T21:59:12.127Z,57.89
2024-01-15T22:01:39.949Z,57.81
2024-01-15T22:04:07.950Z,57.81
2024-01-15T22:06:37.976Z,57.94
2024-01-15T22:09:05.109Z,57.87
2024-01-15T22:11:32.303Z,57.85
2024-01-15T22:13:59.425Z,57.98
2024-01-15T22:16:26.631Z,58.01
2024-01-15T22:18:53.790Z,58.13
2024-01-15T22:21:20.925Z,58.02
2024-01-15T22:23:47.825Z,58.04
2024-01-15T22:26:14.911Z,57.98
2024-01-15T22:28:42.916Z,57.67
2024-01-15T22:31:10.757Z,57.54
2024-01-15T22:33:38.030Z,57.50
2024-01-15T22:36:05.892Z,57.48
2024-01-15T22:38:32.900Z,57.46
2024-01-15T22:41:00.171Z,57.46
2024-01-15T22:43:27.936Z,57.51
2024-01-15T22:45:55.594Z,57.69
2024-01-15T22:48:22.898Z,57.65
2024-01-15T22:50:50.022Z,57.76
2024-01-15T22:53:18.684Z,57.55
2024-01-15T22:55:45.526Z,57.47
2024-01-15T22:58:12.573Z,57.34
2024-01-15T23:00:44.448Z,57.28
2024-01-15T23:03:12.042Z,57.33
2024-01-15T23:05:39.691Z,57.35
2024-01-15T23:08:06.938Z,57.27
2024-01-15T23:10:33.930Z,56.97
2024-01-15T23:13:00.897Z,56.83
2024-01-15T23:15:29.170Z,56.73
2024-01-15T23:17:59.501Z,56.54
2024-01-15T23:20:26.890Z,56.32
2024-01-15T23:22:53.913Z,56.27
2024-01-15T23:25:20.836Z,56.23
2024-01-15T23:27:47.783Z,56.09
2024-01-15T23:30:15.142Z,56.22
2024-01-15T23:32:42.277Z,56.23
2024-01-15T23:35:09.400Z,56.13
2024-01-15T23:37:36.607Z,56.13
2024-01-15T23:40:05.227Z,56.08
2024-01-15T23:42:32.623Z,56.05
2024-01-15T23:44:59.469Z,56.19
2024-01-15T23:47:26.680Z,56.30
2024-01-15T23:49:53.865Z,56.31
2024-01-15T23:52:20.719Z,56.38
2024-01-15T23:54:48.703Z,56.43
2024-01-15T23:57:16.128Z,56.44
2024-01-15T23:59:43.156Z,56.48
